createdAt,value
2024-04-18T00:00:40.324Z,95121.84
2024-04-18T00:05:42.079Z,95121.03
2024-04-18T00:10:44.728Z,95131.91
2024-04-18T00:16:06.718Z,95125.25
2024-04-18T00:21:08.461Z,95129.91
2024-04-18T00:26:28.523Z,95128.75
2024-04-18T00:31:39.321Z,95124.84
2024-04-18T00:36:41.070Z,95118.28
2024-04-18T00:41:57.848Z,95125.25
2024-04-18T00:47:05.972Z,95129.50
2024-04-18T00:52:12.338Z,95136.50
2024-04-18T00:57:29.024Z,95130.31
2024-04-18T01:02:31.406Z,95127.19
2024-04-18T01:07:52.184Z,95124.06
2024-04-18T01:13:01.357Z,95126.03
2024-04-18T01:18:38.907Z,95119.81
2024-04-18T01:23:50.144Z,95127.19
2024-04-18T01:28:52.575Z,95126.78
2024-04-18T01:34:07.020Z,95128.75
2024-04-18T01:39:09.128Z,95126.03
2024-04-18T01:44:11.869Z,95136.13
2024-04-18T01:49:32.310Z,95129.88
2024-04-18T01:54:34.898Z,95134.50
2024-04-18T01:59:36.864Z,95143.44
2024-04-18T02:04:38.962Z,95138.34
2024-04-18T02:09:41.025Z,95148.81
2024-04-18T02:15:00.910Z,95152.31
2024-04-18T02:20:02.917Z,95146.06
2024-04-18T02:25:16.820Z,95152.66
2024-04-18T02:30:18.905Z,95151.88
2024-04-18T02:35:20.823Z,95156.13
2024-04-18T02:40:35.044Z,95156.88
2024-04-18T02:45:37.100Z,95159.19
2024-04-18T02:50:57.559Z,95162.66
2024-04-18T02:55:59.605Z,95158.78
2024-04-18T03:01:07.405Z,95159.94
2024-04-18T03:06:13.925Z,95161.84
2024-04-18T03:11:16.281Z,95163.03
2024-04-18T03:16:38.297Z,95158.75
2024-04-18T03:21:56.110Z,95166.09
2024-04-18T03:26:58.266Z,95173.88
2024-04-18T03:32:00.577Z,95163.41
2024-04-18T03:37:21.961Z,95169.59
2024-04-18T03:42:24.097Z,95176.59
2024-04-18T03:47:28.753Z,95176.59
2024-04-18T03:52:45.837Z,95186.69
2024-04-18T03:58:06.230Z,95194.78
2024-04-18T04:03:23.766Z,95185.81
2024-04-18T04:08:25.876Z,95190.06
2024-04-18T04:13:45.983Z,95195.47
2024-04-18T04:18:56.732Z,95198.56
2024-04-18T04:24:17.594Z,95202.81
2024-04-18T04:29:25.549Z,95210.94
2024-04-18T04:34:27.502Z,95212.88
2024-04-18T04:39:29.582Z,95225.69
2024-04-18T04:44:51.594Z,95238.06
2024-04-18T04:50:06.383Z,95244.72
2024-04-18T04:55:11.373Z,95250.16
2024-04-18T05:00:14.090Z,95245.09
2024-04-18T05:05:31.058Z,95257.13
2024-04-18T05:10:46.734Z,95256.78
2024-04-18T05:15:49.165Z,95261.47
2024-04-18T05:21:06.813Z,95268.09
2024-04-18T05:26:34.283Z,95275.06
2024-04-18T05:31:38.319Z,95275.50
2024-04-18T05:36:41.511Z,95278.97
2024-04-18T05:41:43.188Z,95282.84
2024-04-18T05:47:03.889Z,95297.53
2024-04-18T05:52:06.922Z,95306.78
2024-04-18T05:57:08.861Z,95314.91
2024-04-18T06:02:25.789Z,95314.88
2024-04-18T06:07:27.515Z,95319.16
2024-04-18T06:12:29.216Z,95317.63
2024-04-18T06:17:30.984Z,95324.19
2024-04-18T06:22:32.899Z,95318.00
2024-04-18T06:27:54.919Z,95328.47
2024-04-18T06:32:56.988Z,95332.75
2024-04-18T06:37:58.697Z,95343.66
2024-04-18T06:43:00.532Z,95339.03
2024-04-18T06:48:02.438Z,95351.47
2024-04-18T06:53:04.712Z,95359.97
2024-04-18T06:58:06.534Z,95357.66
2024-04-18T07:03:08.939Z,95362.69
2024-04-18T07:08:26.057Z,95374.28
2024-04-18T07:13:33.265Z,95379.41
2024-04-18T07:18:56.180Z,95380.28
2024-04-18T07:24:01.162Z,95385.78
2024-04-18T07:29:23.634Z,95383.91
2024-04-18T07:34:25.523Z,95392.84
2024-04-18T07:39:27.448Z,95394.38
2024-04-18T07:44:29.150Z,95403.69
2024-04-18T07:49:30.876Z,95411.84
2024-04-18T07:54:32.559Z,95420.41
2024-04-18T07:59:34.542Z,95416.56
2024-04-18T08:04:52.702Z,95433.97
2024-04-18T08:10:02.975Z,95440.19
2024-04-18T08:15:11.943Z,95442.13
2024-04-18T08:20:16.970Z,95451.09
2024-04-18T08:25:18.668Z,95451.13
2024-04-18T08:30:20.735Z,95448.50
2024-04-18T08:35:22.418Z,95448.69
2024-04-18T08:40:24.245Z,95450.78
2024-04-18T08:45:27.128Z,95460.88
2024-04-18T08:50:33.026Z,95469.78
2024-04-18T08:55:36.607Z,95474.06
2024-04-18T09:00:45.359Z,95478.75
2024-04-18T09:05:47.160Z,95482.97
2024-04-18T09:10:49.351Z,95488.75
2024-04-18T09:15:51.012Z,95485.22
2024-04-18T09:20:53.885Z,95485.22
2024-04-18T09:25:55.618Z,95484.50
2024-04-18T09:30:59.754Z,95493.59
2024-04-18T09:36:02.740Z,95483.63
2024-04-18T09:41:29.369Z,95483.75
2024-04-18T09:46:35.682Z,95478.03
2024-04-18T09:51:38.226Z,95479.22
2024-04-18T09:56:40.047Z,95489.00
2024-04-18T10:01:43.440Z,95488.59
2024-04-18T10:06:47.496Z,95484.28
2024-04-18T10:11:50.333Z,95509.84
2024-04-18T10:16:52.127Z,95508.94
2024-04-18T10:22:11.129Z,95517.66
2024-04-18T10:27:22.146Z,95506.25
2024-04-18T10:32:33.738Z,95518.66
2024-04-18T10:37:36.592Z,95521.03
2024-04-18T10:42:38.634Z,95522.28
2024-04-18T10:47:41.142Z,95514.94
2024-04-18T10:52:42.856Z,95511.97
2024-04-18T10:57:44.560Z,95504.34
2024-04-18T11:02:46.369Z,95506.41
2024-04-18T11:07:57.234Z,95505.75
2024-04-18T11:13:01.383Z,95518.25
2024-04-18T11:18:06.672Z,95519.81
2024-04-18T11:23:15.061Z,95515.97
2024-04-18T11:28:18.695Z,95507.06
2024-04-18T11:33:23.999Z,95519.91
2024-04-18T11:38:26.026Z,95530.84
2024-04-18T11:43:27.962Z,95540.19
2024-04-18T11:48:29.783Z,95543.66
2024-04-18T11:53:31.861Z,95559.22
2024-04-18T11:58:33.561Z,95565.00
2024-04-18T12:03:35.861Z,95575.09
2024-04-18T12:08:37.592Z,95570.03
2024-04-18T12:13:59.363Z,95580.91
2024-04-18T12:19:01.104Z,95588.31
2024-04-18T12:24:02.845Z,95581.31
2024-04-18T12:29:09.680Z,95592.31
2024-04-18T12:34:30.211Z,95595.44
2024-04-18T12:39:37.931Z,95592.34
2024-04-18T12:44:58.916Z,95597.81
2024-04-18T12:50:00.736Z,95610.66
2024-04-18T12:55:02.561Z,95605.63
2024-04-18T13:00:06.034Z,95609.13
2024-04-18T13:05:26.381Z,95611.47
2024-04-18T13:10:38.642Z,95608.78
2024-04-18T13:16:00.770Z,95607.22
2024-04-18T13:21:04.507Z,95613.47
2024-04-18T13:26:06.236Z,95620.06
2024-04-18T13:31:12.691Z,95620.41
2024-04-18T13:36:43.523Z,95623.81
2024-04-18T13:41:46.583Z,95626.53
2024-04-18T13:46:51.083Z,95627.66
2024-04-18T13:52:11.387Z,95621.41
2024-04-18T13:57:18.190Z,95615.19
2024-04-18T14:02:20.695Z,95625.72
2024-04-18T14:07:22.505Z,95623.38
2024-04-18T14:12:24.264Z,95615.94
2024-04-18T14:17:50.130Z,95622.91
2024-04-18T14:22:51.980Z,95628.38
2024-04-18T14:27:53.647Z,95617.09
2024-04-18T14:33:11.085Z,95618.72
2024-04-18T14:38:12.863Z,95629.72
2024-04-18T14:43:14.894Z,95623.56
2024-04-18T14:48:16.588Z,95626.31
2024-04-18T14:53:19.547Z,95624.38
2024-04-18T14:58:42.117Z,95643.84
2024-04-18T15:03:56.261Z,95652.84
2024-04-18T15:08:58.269Z,95628.69
2024-04-18T15:13:59.932Z,95609.19
2024-04-18T15:19:01.819Z,95621.25
2024-04-18T15:24:23.940Z,95622.03
2024-04-18T15:29:34.731Z,95625.94
2024-04-18T15:34:55.256Z,95619.31
2024-04-18T15:40:33.436Z,95625.91
2024-04-18T15:45:40.936Z,95640.75
2024-04-18T15:50:58.123Z,95645.44
2024-04-18T15:56:05.657Z,95646.97
2024-04-18T16:01:27.384Z,95658.66
2024-04-18T16:06:47.493Z,95659.03
2024-04-18T16:11:49.243Z,95663.31
2024-04-18T16:17:06.200Z,95662.50
2024-04-18T16:22:13.546Z,95673.81
2024-04-18T16:27:24.032Z,95688.97
2024-04-18T16:32:34.833Z,95683.56
2024-04-18T16:37:40.570Z,95692.56
2024-04-18T16:42:48.723Z,95691.44
2024-04-18T16:47:51.854Z,95707.44
2024-04-18T16:52:54.076Z,95709.78
2024-04-18T16:58:15.685Z,95712.13
2024-04-18T17:03:29.588Z,95714.84
2024-04-18T17:08:32.142Z,95724.19
2024-04-18T17:13:33.861Z,95723.00
2024-04-18T17:18:45.232Z,95723.72
2024-04-18T17:23:47.173Z,95727.97
2024-04-18T17:28:48.852Z,95735.72
2024-04-18T17:34:10.523Z,95749.28
2024-04-18T17:39:18.082Z,95752.31
2024-04-18T17:44:19.786Z,95747.53
2024-04-18T17:49:28.225Z,95751.34
2024-04-18T17:54:30.131Z,95747.34
2024-04-18T17:59:31.838Z,95750.00
2024-04-18T18:04:33.659Z,95758.16
2024-04-18T18:09:36.954Z,95765.09
2024-04-18T18:14:38.848Z,95772.06
2024-04-18T18:19:40.730Z,95770.88
2024-04-18T18:24:42.507Z,95776.25
2024-04-18T18:29:44.278Z,95788.28
2024-04-18T18:34:47.238Z,95787.47
2024-04-18T18:39:49.623Z,95790.09
2024-04-18T18:44:51.362Z,95790.03
2024-04-18T18:49:53.079Z,95812.50
2024-04-18T18:54:55.689Z,95814.00
2024-04-18T18:59:57.701Z,95817.41
2024-04-18T19:04:59.437Z,95823.16
2024-04-18T19:10:01.222Z,95823.09
2024-04-18T19:15:03.006Z,95824.59
2024-04-18T19:20:05.079Z,95827.31
2024-04-18T19:25:06.942Z,95833.84
2024-04-18T19:30:09.162Z,95833.81
2024-04-18T19:35:13.692Z,95838.00
2024-04-18T19:40:16.484Z,95834.47
2024-04-18T19:45:37.948Z,95849.56
2024-04-18T19:50:40.474Z,95860.75
2024-04-18T19:56:02.501Z,95859.19
2024-04-18T20:01:06.797Z,95859.19
2024-04-18T20:06:09.650Z,95858.41
2024-04-18T20:11:27.191Z,95865.78
2024-04-18T20:16:28.921Z,95860.28
2024-04-18T20:21:45.931Z,95857.88
2024-04-18T20:26:47.738Z,95849.69
2024-04-18T20:31:49.427Z,95855.91
2024-04-18T20:36:51.140Z,95851.63
2024-04-18T20:41:54.336Z,95860.91
2024-04-18T20:46:56.008Z,95853.91
2024-04-18T20:51:57.673Z,95858.19
2024-04-18T20:57:19.529Z,95866.34
2024-04-18T21:02:21.894Z,95872.53
2024-04-18T21:07:23.942Z,95867.81
2024-04-18T21:12:27.824Z,95866.16
2024-04-18T21:17:29.816Z,95878.09
2024-04-18T21:22:31.700Z,95875.31
2024-04-18T21:27:33.536Z,95879.53
2024-04-18T21:32:35.427Z,95881.03
2024-04-18T21:37:37.299Z,95876.78
2024-04-18T21:42:39.248Z,95871.69
2024-04-18T21:47:41.262Z,95870.56
2024-04-18T21:52:43.073Z,95872.06
2024-04-18T21:57:44.992Z,95868.16
2024-04-18T22:02:47.031Z,95870.41
2024-04-18T22:07:48.911Z,95859.13
2024-04-18T22:12:50.821Z,95859.47
2024-04-18T22:17:52.880Z,95862.91
2024-04-18T22:22:54.740Z,95862.13
2024-04-18T22:27:56.702Z,95862.91
2024-04-18T22:32:58.653Z,95857.06
2024-04-18T22:38:00.538Z,95867.50
2024-04-18T22:43:02.649Z,95860.84
2024-04-18T22:48:05.045Z,95858.56
2024-04-18T22:53:06.926Z,95859.78
2024-04-18T22:58:09.843Z,95857.41
2024-04-18T23:03:11.716Z,95862.44
2024-04-18T23:08:13.662Z,95850.00
2024-04-18T23:13:15.691Z,95851.94
2024-04-18T23:18:20.527Z,95848.88
2024-04-18T23:23:22.483Z,95850.41
2024-04-18T23:28:24.309Z,95847.66
2024-04-18T23:33:26.266Z,95850.00
2024-04-18T23:38:28.221Z,95839.13
2024-04-18T23:43:30.066Z,95829.88
2024-04-18T23:48:32.187Z,95833.34
2024-04-18T23:53:34.116Z,95833.69
2024-04-18T23:58:36.001Z,95831.78
